createdAt,value
2018-12-09T00:00:32.127Z,69.57
2018-12-09T00:02:59.538Z,69.48
2018-12-09T00:05:26.964Z,69.84
2018-12-09T00:07:54.385Z,69.90
2018-12-09T00:10:21.801Z,68.65
2018-12-09T00:12:49.210Z,69.29
2018-12-09T00:15:16.639Z,70.39
2018-12-09T00:17:44.047Z,73.06
2018-12-09T00:20:11.475Z,74.63
2018-12-09T00:22:38.886Z,76.40
2018-12-09T00:25:06.310Z,77.82
2018-12-09T00:27:33.725Z,78.12
2018-12-09T00:30:01.148Z,78.60
2018-12-09T00:32:28.583Z,79.74
2018-12-09T00:34:56.010Z,79.55
2018-12-09T00:37:23.419Z,80.53
2018-12-09T00:39:50.831Z,80.16
2018-12-09T00:42:18.247Z,80.77
2018-12-09T00:44:45.680Z,81.03
2018-12-09T00:47:13.124Z,80.82
2018-12-09T00:49:40.546Z,79.82
2018-12-09T00:52:07.955Z,80.29
2018-12-09T00:54:35.376Z,80.56
2018-12-09T00:57:02.779Z,80.14
2018-12-09T00:59:30.195Z,79.18
2018-12-09T01:01:57.621Z,79.49
2018-12-09T01:04:25.046Z,77.97
2018-12-09T01:06:52.457Z,77.18
2018-12-09T01:09:19.887Z,77.51
2018-12-09T01:11:47.308Z,77.97
2018-12-09T01:14:14.718Z,77.90
2018-12-09T01:16:42.135Z,77.12
2018-12-09T01:19:09.571Z,75.60
2018-12-09T01:21:36.974Z,76.67
2018-12-09T01:24:04.450Z,74.79
2018-12-09T01:26:31.858Z,75.73
2018-12-09T01:28:59.278Z,75.12
2018-12-09T01:31:26.711Z,75.19
2018-12-09T01:33:54.130Z,74.00
2018-12-09T01:36:21.622Z,74.55
2018-12-09T01:38:49.031Z,73.77
2018-12-09T01:41:16.510Z,74.61
2018-12-09T01:43:43.970Z,73.74
2018-12-09T01:46:11.392Z,73.08
2018-12-09T01:48:38.814Z,70.60
2018-12-09T01:51:06.304Z,71.92
2018-12-09T01:53:33.717Z,71.75
2018-12-09T01:56:01.202Z,70.23
2018-12-09T01:58:28.628Z,71.41
2018-12-09T02:00:56.427Z,71.43
2018-12-09T02:03:23.843Z,69.78
2018-12-09T02:05:51.255Z,70.02
2018-12-09T02:08:18.676Z,69.90
2018-12-09T02:10:46.167Z,68.08
2018-12-09T02:13:13.875Z,69.13
2018-12-09T02:15:41.375Z,68.75
2018-12-09T02:18:08.795Z,68.63
2018-12-09T02:20:36.211Z,67.29
2018-12-09T02:23:03.627Z,67.80
2018-12-09T02:25:31.047Z,67.78
2018-12-09T02:27:58.460Z,67.68
2018-12-09T02:30:25.905Z,67.92
2018-12-09T02:32:53.392Z,68.60
2018-12-09T02:35:20.878Z,67.90
2018-12-09T02:37:48.295Z,67.76
2018-12-09T02:40:15.772Z,67.57
2018-12-09T02:42:43.179Z,67.18
2018-12-09T02:45:10.694Z,66.42
2018-12-09T02:47:38.164Z,66.18
2018-12-09T02:50:05.657Z,66.86
2018-12-09T02:52:33.157Z,66.56
2018-12-09T02:55:00.633Z,66.26
2018-12-09T02:57:28.173Z,66.73
2018-12-09T02:59:55.835Z,65.96
2018-12-09T03:02:23.250Z,65.49
2018-12-09T03:04:50.775Z,66.04
2018-12-09T03:07:18.204Z,65.58
2018-12-09T03:09:45.714Z,66.06
2018-12-09T03:12:13.583Z,66.06
2018-12-09T03:14:41.084Z,66.30
2018-12-09T03:17:08.509Z,66.02
2018-12-09T03:19:36.091Z,67.11
2018-12-09T03:22:03.580Z,67.04
2018-12-09T03:24:31.267Z,66.88
2018-12-09T03:26:58.687Z,67.22
2018-12-09T03:29:26.107Z,67.53
2018-12-09T03:31:53.533Z,66.74
2018-12-09T03:34:20.942Z,66.59
2018-12-09T03:36:48.535Z,67.18
2018-12-09T03:39:15.958Z,67.15
2018-12-09T03:41:43.379Z,67.69
2018-12-09T03:44:10.786Z,68.00
2018-12-09T03:46:38.288Z,66.77
2018-12-09T03:49:05.983Z,66.87
2018-12-09T03:51:33.417Z,66.76
2018-12-09T03:54:00.827Z,67.57
2018-12-09T03:56:28.367Z,67.65
2018-12-09T03:58:55.787Z,67.09
2018-12-09T04:01:23.595Z,66.84
2018-12-09T04:03:51.023Z,66.41
2018-12-09T04:06:18.520Z,65.50
2018-12-09T04:08:46.011Z,65.01
2018-12-09T04:11:13.436Z,65.35
2018-12-09T04:13:41.231Z,65.21
2018-12-09T04:16:08.733Z,65.88
2018-12-09T04:18:36.245Z,66.51
2018-12-09T04:21:03.660Z,67.16
2018-12-09T04:23:31.143Z,68.76
2018-12-09T04:25:58.931Z,70.69
2018-12-09T04:28:26.351Z,70.86
2018-12-09T04:30:53.770Z,72.61
2018-12-09T04:33:21.208Z,73.31
2018-12-09T04:35:48.639Z,71.71
2018-12-09T04:38:16.416Z,71.40
2018-12-09T04:40:43.916Z,71.45
2018-12-09T04:43:11.316Z,71.78
2018-12-09T04:45:38.816Z,71.52
2018-12-09T04:48:06.303Z,70.81
2018-12-09T04:50:34.095Z,70.71
2018-12-09T04:53:01.521Z,70.92
2018-12-09T04:55:28.928Z,70.03
2018-12-09T04:57:56.341Z,69.21
2018-12-09T05:00:23.751Z,70.52
2018-12-09T05:02:51.353Z,70.16
2018-12-09T05:05:18.758Z,71.33
2018-12-09T05:07:46.187Z,71.29
2018-12-09T05:10:13.673Z,72.93
2018-12-09T05:12:41.100Z,74.53
2018-12-09T05:15:08.896Z,75.60
2018-12-09T05:17:36.324Z,75.55
2018-12-09T05:20:03.740Z,76.32
2018-12-09T05:22:31.150Z,76.11
2018-12-09T05:24:58.576Z,75.39
2018-12-09T05:27:26.004Z,75.06
2018-12-09T05:29:53.440Z,74.87
2018-12-09T05:32:20.846Z,74.65
2018-12-09T05:34:48.351Z,74.60
2018-12-09T05:37:15.771Z,74.56
2018-12-09T05:39:43.194Z,73.65
2018-12-09T05:42:10.609Z,74.74
2018-12-09T05:44:38.087Z,74.95
2018-12-09T05:47:05.516Z,75.00
2018-12-09T05:49:33.016Z,75.78
2018-12-09T05:52:00.433Z,76.64
2018-12-09T05:54:27.847Z,76.98
2018-12-09T05:56:55.259Z,76.53
2018-12-09T05:59:22.677Z,76.48
2018-12-09T06:01:50.180Z,77.60
2018-12-09T06:04:17.591Z,77.59
2018-12-09T06:06:45.283Z,78.50
2018-12-09T06:09:12.707Z,78.12
2018-12-09T06:11:40.192Z,78.86
2018-12-09T06:14:07.683Z,78.68
2018-12-09T06:16:35.101Z,78.24
2018-12-09T06:19:02.883Z,78.50
2018-12-09T06:21:30.298Z,78.63
2018-12-09T06:23:57.720Z,79.00
2018-12-09T06:26:25.151Z,78.93
2018-12-09T06:28:52.745Z,78.92
2018-12-09T06:31:20.530Z,78.16
2018-12-09T06:33:47.942Z,77.68
2018-12-09T06:36:15.355Z,77.59
2018-12-09T06:38:42.771Z,77.51
2018-12-09T06:41:10.260Z,77.56
2018-12-09T06:43:37.688Z,78.43
2018-12-09T06:46:05.101Z,79.38
2018-12-09T06:48:32.514Z,78.42
2018-12-09T06:50:59.927Z,78.86
2018-12-09T06:53:27.436Z,78.82
2018-12-09T06:55:54.928Z,80.44
2018-12-09T06:58:22.354Z,79.37
2018-12-09T07:00:49.828Z,79.62
2018-12-09T07:03:17.315Z,80.50
2018-12-09T07:05:44.729Z,79.54
2018-12-09T07:08:12.186Z,79.37
2018-12-09T07:10:39.666Z,80.60
2018-12-09T07:13:07.083Z,80.30
2018-12-09T07:15:34.494Z,80.92
2018-12-09T07:18:01.914Z,79.54
2018-12-09T07:20:29.314Z,78.59
2018-12-09T07:22:56.745Z,78.96
2018-12-09T07:25:24.246Z,77.80
2018-12-09T07:27:51.679Z,76.51
2018-12-09T07:30:19.082Z,77.38
2018-12-09T07:32:46.502Z,75.56
2018-12-09T07:35:13.924Z,74.70
2018-12-09T07:37:41.611Z,74.72
2018-12-09T07:40:09.094Z,74.04
2018-12-09T07:42:36.523Z,75.20
2018-12-09T07:45:04.028Z,73.94
2018-12-09T07:47:31.453Z,73.52
2018-12-09T07:49:58.866Z,72.56
2018-12-09T07:52:26.369Z,73.36
2018-12-09T07:54:53.775Z,72.92
2018-12-09T07:57:21.198Z,72.59
2018-12-09T07:59:48.693Z,72.28
2018-12-09T08:02:16.107Z,71.55
2018-12-09T08:04:43.515Z,71.40
2018-12-09T08:07:10.968Z,71.08
2018-12-09T08:09:38.376Z,71.01
2018-12-09T08:12:05.797Z,70.49
2018-12-09T08:14:33.212Z,70.55
2018-12-09T08:17:00.706Z,69.97
2018-12-09T08:19:28.112Z,69.99
2018-12-09T08:21:55.527Z,70.74
2018-12-09T08:24:23.903Z,70.84
2018-12-09T08:26:51.328Z,71.57
2018-12-09T08:29:18.744Z,71.68
2018-12-09T08:31:46.147Z,71.92
2018-12-09T08:34:13.554Z,70.46
2018-12-09T08:36:40.970Z,71.20
2018-12-09T08:39:08.412Z,71.13
2018-12-09T08:41:35.832Z,70.67
2018-12-09T08:44:03.260Z,70.13
2018-12-09T08:46:30.676Z,68.93
2018-12-09T08:48:58.119Z,69.29
2018-12-09T08:51:25.530Z,68.64
2018-12-09T08:53:52.952Z,68.84
2018-12-09T08:56:20.368Z,69.12
2018-12-09T08:58:47.789Z,70.09
2018-12-09T09:01:15.212Z,69.52
2018-12-09T09:03:42.619Z,69.69
2018-12-09T09:06:10.039Z,69.42
2018-12-09T09:08:37.443Z,69.98
2018-12-09T09:11:04.855Z,69.29
2018-12-09T09:13:33.182Z,70.09
2018-12-09T09:16:00.612Z,69.91
2018-12-09T09:18:28.027Z,69.87
2018-12-09T09:20:55.453Z,69.80
2018-12-09T09:23:22.959Z,70.38
2018-12-09T09:25:50.368Z,69.54
2018-12-09T09:28:17.806Z,69.72
2018-12-09T09:30:45.210Z,70.08
2018-12-09T09:33:12.627Z,69.66
2018-12-09T09:35:40.051Z,69.75
2018-12-09T09:38:07.467Z,69.55
2018-12-09T09:40:34.923Z,69.94
2018-12-09T09:43:02.382Z,69.88
2018-12-09T09:45:29.797Z,69.61
2018-12-09T09:47:57.243Z,70.13
2018-12-09T09:50:24.659Z,68.93
2018-12-09T09:52:52.071Z,68.73
2018-12-09T09:55:19.490Z,68.68
2018-12-09T09:57:46.907Z,68.36
2018-12-09T10:00:14.332Z,68.76
2018-12-09T10:02:41.768Z,68.27
2018-12-09T10:05:09.199Z,68.82
2018-12-09T10:07:36.632Z,68.15
2018-12-09T10:10:04.105Z,67.92
2018-12-09T10:12:31.551Z,67.86
2018-12-09T10:14:58.975Z,68.04
2018-12-09T10:17:26.575Z,67.42
2018-12-09T10:19:54.011Z,67.49
2018-12-09T10:22:21.427Z,67.64
2018-12-09T10:24:48.955Z,68.43
2018-12-09T10:27:16.528Z,68.19
2018-12-09T10:29:43.955Z,66.82
2018-12-09T10:32:11.953Z,68.14
2018-12-09T10:34:39.397Z,67.90
2018-12-09T10:37:06.823Z,67.71
2018-12-09T10:39:34.235Z,67.58
2018-12-09T10:42:01.652Z,68.60
2018-12-09T10:44:29.066Z,67.29
2018-12-09T10:46:56.912Z,67.38
2018-12-09T10:49:24.332Z,67.15
2018-12-09T10:51:51.747Z,66.77
2018-12-09T10:54:19.175Z,66.16
2018-12-09T10:56:46.611Z,65.44
2018-12-09T10:59:14.039Z,65.34
2018-12-09T11:01:45.653Z,65.58
2018-12-09T11:04:13.228Z,64.73
2018-12-09T11:06:40.890Z,64.42
2018-12-09T11:09:08.396Z,63.86
2018-12-09T11:11:35.831Z,63.46
2018-12-09T11:14:03.285Z,63.88
2018-12-09T11:16:30.703Z,62.91
2018-12-09T11:18:58.131Z,62.94
2018-12-09T11:21:30.504Z,62.64
2018-12-09T11:23:54.963Z,62.53
2018-12-09T11:26:22.863Z,62.42
2018-12-09T11:28:50.345Z,62.23
2018-12-09T11:31:17.762Z,62.57
2018-12-09T11:33:45.228Z,62.88
2018-12-09T11:36:12.642Z,62.03
2018-12-09T11:38:40.068Z,61.68
2018-12-09T11:41:07.497Z,61.53
2018-12-09T11:43:34.940Z,61.55
2018-12-09T11:46:03.413Z,61.07
2018-12-09T11:48:31.039Z,62.32
2018-12-09T11:50:58.458Z,61.88
2018-12-09T11:53:25.888Z,63.31
2018-12-09T11:55:53.322Z,62.36
2018-12-09T11:58:21.027Z,63.05
2018-12-09T12:00:48.442Z,62.66
2018-12-09T12:03:16.438Z,62.51
2018-12-09T12:05:43.862Z,63.69
2018-12-09T12:08:11.298Z,62.71
2018-12-09T12:10:38.716Z,63.42
2018-12-09T12:13:06.132Z,64.47
2018-12-09T12:15:33.669Z,63.88
2018-12-09T12:18:01.166Z,64.45
2018-12-09T12:20:28.615Z,65.19
2018-12-09T12:22:56.051Z,64.28
2018-12-09T12:25:23.511Z,65.29
2018-12-09T12:27:50.931Z,66.48
2018-12-09T12:30:18.403Z,66.78
2018-12-09T12:32:46.192Z,67.50
2018-12-09T12:35:13.614Z,67.75
2018-12-09T12:37:41.070Z,67.75
2018-12-09T12:40:08.539Z,67.60
2018-12-09T12:42:35.970Z,68.41
2018-12-09T12:45:03.464Z,68.64
2018-12-09T12:47:30.880Z,69.50
2018-12-09T12:49:58.347Z,70.04
2018-12-09T12:52:25.760Z,71.00
2018-12-09T12:54:53.175Z,70.60
2018-12-09T12:57:20.590Z,71.37
2018-12-09T12:59:48.006Z,71.42
2018-12-09T13:02:15.467Z,71.00
2018-12-09T13:04:42.914Z,71.34
2018-12-09T13:07:10.322Z,71.09
2018-12-09T13:09:37.827Z,71.27
2018-12-09T13:12:05.776Z,71.10
2018-12-09T13:14:33.219Z,71.17
2018-12-09T13:17:00.996Z,71.77
2018-12-09T13:19:28.488Z,71.53
2018-12-09T13:21:55.936Z,71.56
2018-12-09T13:24:23.349Z,71.29
2018-12-09T13:26:50.847Z,71.78
2018-12-09T13:29:18.310Z,71.32
2018-12-09T13:31:45.758Z,71.73
2018-12-09T13:34:13.185Z,71.39
2018-12-09T13:36:40.684Z,71.34
2018-12-09T13:39:08.922Z,71.22
2018-12-09T13:41:36.355Z,71.09
2018-12-09T13:44:03.787Z,70.96
2018-12-09T13:46:31.231Z,70.29
2018-12-09T13:48:59.411Z,69.33
2018-12-09T13:51:26.856Z,69.21
2018-12-09T13:53:54.323Z,69.15
2018-12-09T13:56:21.752Z,68.53
2018-12-09T13:58:49.162Z,69.09
2018-12-09T14:01:16.692Z,71.02
2018-12-09T14:03:44.108Z,75.31
2018-12-09T14:06:11.611Z,74.27
2018-12-09T14:08:39.023Z,76.05
2018-12-09T14:11:06.447Z,77.09
2018-12-09T14:13:33.951Z,77.69
2018-12-09T14:16:01.371Z,77.31
2018-12-09T14:18:28.867Z,77.78
2018-12-09T14:20:56.346Z,77.35
2018-12-09T14:23:23.764Z,77.94
2018-12-09T14:25:51.263Z,77.37
2018-12-09T14:28:18.704Z,78.74
2018-12-09T14:30:46.135Z,78.05
2018-12-09T14:33:13.676Z,77.95
2018-12-09T14:35:41.096Z,78.02
2018-12-09T14:38:08.975Z,78.34
2018-12-09T14:40:36.400Z,78.87
2018-12-09T14:43:03.810Z,78.60
2018-12-09T14:45:31.232Z,78.94
2018-12-09T14:47:58.655Z,78.66
2018-12-09T14:50:26.084Z,77.65
2018-12-09T14:52:54.180Z,77.91
2018-12-09T14:55:21.636Z,77.16
2018-12-09T14:57:49.135Z,76.79
2018-12-09T15:00:16.547Z,76.87
2018-12-09T15:02:43.958Z,76.29
2018-12-09T15:05:11.434Z,75.87
2018-12-09T15:07:38.855Z,75.30
2018-12-09T15:10:08.933Z,76.37
2018-12-09T15:12:36.059Z,75.73
2018-12-09T15:15:03.473Z,75.52
2018-12-09T15:17:30.943Z,76.02
2018-12-09T15:19:59.252Z,75.43
2018-12-09T15:22:26.683Z,75.33
2018-12-09T15:24:54.176Z,75.21
2018-12-09T15:27:21.582Z,74.47
2018-12-09T15:29:48.999Z,74.39
2018-12-09T15:32:16.420Z,74.71
2018-12-09T15:34:43.863Z,74.61
2018-12-09T15:37:11.328Z,74.00
2018-12-09T15:39:38.755Z,74.83
2018-12-09T15:42:06.186Z,75.05
2018-12-09T15:44:33.811Z,75.15
2018-12-09T15:47:01.231Z,75.15
2018-12-09T15:49:28.716Z,74.86
2018-12-09T15:51:56.146Z,75.11
2018-12-09T15:54:23.798Z,75.22
2018-12-09T15:56:51.286Z,76.30
2018-12-09T15:59:20.792Z,75.47
2018-12-09T16:01:48.255Z,76.26
2018-12-09T16:04:16.539Z,76.65
2018-12-09T16:06:44.093Z,76.02
2018-12-09T16:09:11.567Z,76.14
2018-12-09T16:11:38.985Z,76.27
2018-12-09T16:14:06.463Z,75.96
2018-12-09T16:16:33.923Z,76.04
2018-12-09T16:19:01.337Z,76.00
2018-12-09T16:21:28.841Z,75.96
2018-12-09T16:23:56.435Z,76.25
2018-12-09T16:26:23.842Z,75.50
2018-12-09T16:28:51.745Z,75.75
2018-12-09T16:31:19.164Z,75.26
2018-12-09T16:33:46.971Z,75.09
2018-12-09T16:36:14.504Z,75.04
2018-12-09T16:38:41.999Z,74.92
2018-12-09T16:41:09.519Z,75.31
2018-12-09T16:43:37.277Z,74.92
2018-12-09T16:46:04.748Z,75.65
2018-12-09T16:48:32.179Z,75.19
2018-12-09T16:50:59.596Z,74.66
2018-12-09T16:53:27.112Z,74.48
2018-12-09T16:55:54.571Z,75.19
2018-12-09T16:58:22.031Z,74.87
2018-12-09T17:00:50.027Z,73.75
2018-12-09T17:03:17.444Z,74.09
2018-12-09T17:05:45.222Z,74.34
2018-12-09T17:08:12.687Z,73.93
2018-12-09T17:10:40.104Z,73.40
2018-12-09T17:13:07.528Z,73.22
2018-12-09T17:15:34.948Z,73.58
2018-12-09T17:18:02.412Z,73.07
2018-12-09T17:20:29.875Z,73.82
2018-12-09T17:22:57.287Z,72.64
2018-12-09T17:25:24.791Z,72.12
2018-12-09T17:27:52.223Z,72.47
2018-12-09T17:30:19.707Z,72.61
2018-12-09T17:32:47.161Z,73.13
2018-12-09T17:35:14.574Z,72.61
2018-12-09T17:37:41.988Z,73.00
2018-12-09T17:40:09.428Z,72.88
2018-12-09T17:42:36.879Z,72.73
2018-12-09T17:45:04.340Z,73.46
2018-12-09T17:47:31.788Z,73.52
2018-12-09T17:49:59.261Z,73.28
2018-12-09T17:52:26.719Z,73.91
2018-12-09T17:54:54.134Z,72.92
2018-12-09T17:57:21.561Z,72.30
2018-12-09T17:59:48.979Z,72.62
2018-12-09T18:02:16.452Z,72.36
2018-12-09T18:04:43.871Z,72.65
2018-12-09T18:07:11.365Z,72.10
2018-12-09T18:09:39.654Z,72.36
2018-12-09T18:12:07.100Z,72.77
2018-12-09T18:14:34.556Z,72.18
2018-12-09T18:17:02.004Z,72.65
2018-12-09T18:19:29.416Z,73.44
2018-12-09T18:21:56.845Z,73.97
2018-12-09T18:24:24.270Z,73.56
2018-12-09T18:26:51.828Z,73.12
2018-12-09T18:29:19.296Z,73.71
2018-12-09T18:31:46.751Z,73.32
2018-12-09T18:34:14.210Z,73.23
2018-12-09T18:36:41.631Z,73.48
2018-12-09T18:39:09.132Z,72.67
2018-12-09T18:41:36.554Z,72.97
2018-12-09T18:44:03.974Z,72.34
2018-12-09T18:46:31.398Z,72.91
2018-12-09T18:48:58.860Z,73.37
2018-12-09T18:51:26.288Z,73.35
2018-12-09T18:53:53.710Z,72.59
2018-12-09T18:56:21.600Z,72.43
2018-12-09T18:58:49.037Z,72.05
2018-12-09T19:01:16.462Z,72.57
2018-12-09T19:03:43.891Z,72.43
2018-12-09T19:06:11.316Z,72.42
2018-12-09T19:08:38.825Z,72.41
2018-12-09T19:11:06.278Z,72.84
2018-12-09T19:13:33.696Z,73.01
2018-12-09T19:16:01.131Z,73.15
2018-12-09T19:18:28.569Z,73.65
2018-12-09T19:20:56.008Z,75.27
2018-12-09T19:23:23.480Z,75.88
2018-12-09T19:25:50.921Z,75.93
2018-12-09T19:28:18.331Z,75.23
2018-12-09T19:30:48.396Z,75.82
2018-12-09T19:33:15.776Z,75.91
2018-12-09T19:35:43.194Z,76.42
2018-12-09T19:38:10.634Z,75.53
2018-12-09T19:40:38.048Z,75.26
2018-12-09T19:43:05.460Z,75.46
2018-12-09T19:45:32.875Z,75.51
2018-12-09T19:48:00.296Z,76.51
2018-12-09T19:50:27.721Z,75.92
2018-12-09T19:52:55.155Z,76.66
2018-12-09T19:55:22.563Z,77.59
2018-12-09T19:57:50.023Z,77.70
2018-12-09T20:00:17.433Z,77.94
2018-12-09T20:02:44.938Z,77.38
2018-12-09T20:05:12.358Z,78.95
2018-12-09T20:07:40.610Z,79.81
2018-12-09T20:10:08.017Z,79.50
2018-12-09T20:12:35.431Z,79.71
2018-12-09T20:15:02.839Z,79.98
2018-12-09T20:17:30.815Z,80.23
2018-12-09T20:19:58.229Z,80.08
2018-12-09T20:22:25.638Z,79.77
2018-12-09T20:24:53.089Z,78.68
2018-12-09T20:27:20.508Z,77.75
2018-12-09T20:29:47.938Z,77.94
2018-12-09T20:32:15.364Z,77.81
2018-12-09T20:34:42.796Z,77.12
2018-12-09T20:37:10.384Z,76.09
2018-12-09T20:39:37.826Z,76.23
2018-12-09T20:42:05.239Z,75.94
2018-12-09T20:44:32.739Z,75.94
2018-12-09T20:47:00.159Z,76.16
2018-12-09T20:49:27.600Z,77.48
2018-12-09T20:51:55.099Z,78.88
2018-12-09T20:54:22.523Z,79.80
2018-12-09T20:56:49.939Z,80.30
2018-12-09T20:59:17.384Z,80.97
2018-12-09T21:01:44.843Z,81.26
2018-12-09T21:04:12.255Z,82.65
2018-12-09T21:06:39.695Z,82.80
2018-12-09T21:09:07.119Z,83.02
2018-12-09T21:11:35.408Z,82.25
2018-12-09T21:14:02.846Z,81.75
2018-12-09T21:16:30.732Z,81.98
2018-12-09T21:18:58.160Z,80.82
2018-12-09T21:21:25.571Z,80.96
2018-12-09T21:23:52.999Z,80.92
2018-12-09T21:26:21.295Z,80.81
2018-12-09T21:28:48.720Z,82.44
2018-12-09T21:31:16.598Z,82.96
2018-12-09T21:33:44.051Z,84.13
2018-12-09T21:36:11.921Z,84.36
2018-12-09T21:38:39.406Z,83.79
2018-12-09T21:41:06.852Z,82.48
2018-12-09T21:43:34.275Z,81.42
2018-12-09T22:00:37.790Z,80.39
2018-12-09T22:03:05.209Z,80.88
2018-12-09T22:05:32.648Z,79.65
2018-12-09T22:08:00.436Z,79.37
2018-12-09T22:10:27.927Z,78.21
2018-12-09T22:12:55.806Z,77.77
2018-12-09T22:15:23.227Z,76.79
2018-12-09T22:17:50.644Z,75.69
2018-12-09T22:20:18.073Z,75.89
2018-12-09T22:22:45.490Z,76.02
2018-12-09T22:25:12.980Z,75.43
2018-12-09T22:27:40.393Z,75.42
2018-12-09T22:30:07.812Z,75.11
2018-12-09T22:32:35.219Z,75.77
2018-12-09T22:35:02.702Z,75.01
2018-12-09T22:37:30.198Z,75.22
2018-12-09T22:39:57.604Z,75.56
2018-12-09T22:42:25.032Z,75.91
2018-12-09T22:44:52.539Z,74.85
2018-12-09T22:47:19.991Z,75.36
2018-12-09T22:49:47.412Z,75.36
2018-12-09T22:52:15.291Z,77.19
2018-12-09T22:54:42.712Z,77.25
2018-12-09T22:57:10.399Z,78.18
2018-12-09T22:59:37.888Z,78.04
2018-12-09T23:02:10.864Z,77.61
2018-12-09T23:04:38.331Z,77.88
2018-12-09T23:07:11.190Z,77.21
2018-12-09T23:09:38.611Z,76.16
2018-12-09T23:12:06.032Z,76.28
2018-12-09T23:14:33.447Z,76.85
2018-12-09T23:17:00.859Z,76.05
2018-12-09T23:19:28.402Z,76.91
2018-12-09T23:21:55.833Z,76.13
2018-12-09T23:24:23.330Z,75.05
2018-12-09T23:26:50.804Z,74.23
2018-12-09T23:29:18.221Z,73.44
2018-12-09T23:31:45.627Z,73.81
2018-12-09T23:34:13.047Z,73.24
2018-12-09T23:36:40.503Z,73.15
2018-12-09T23:39:07.922Z,72.97
2018-12-09T23:41:35.418Z,71.74
2018-12-09T23:44:02.846Z,71.12
2018-12-09T23:46:30.266Z,71.59
2018-12-09T23:48:57.687Z,72.67
2018-12-09T23:51:25.135Z,72.09
2018-12-09T23:53:52.559Z,72.41
2018-12-09T23:56:20.141Z,72.65
2018-12-09T23:58:47.553Z,72.38
